createdAt,value
2018-12-13T00:01:09.440Z,6.27
2018-12-13T00:03:36.962Z,7.27
2018-12-13T00:06:04.590Z,6.27
2018-12-13T00:08:32.122Z,6.40
2018-12-13T00:10:59.900Z,6.27
2018-12-13T00:13:27.442Z,5.33
2018-12-13T00:15:55.010Z,6.03
2018-12-13T00:18:22.579Z,6.30
2018-12-13T00:20:50.239Z,5.73
2018-12-13T00:23:17.976Z,6.03
2018-12-13T00:25:45.535Z,6.47
2018-12-13T00:28:13.092Z,5.80
2018-12-13T00:30:40.621Z,6.60
2018-12-13T00:33:08.225Z,6.20
2018-12-13T00:35:35.753Z,6.60
2018-12-13T00:38:03.336Z,6.43
2018-12-13T00:40:30.845Z,6.83
2018-12-13T00:42:58.385Z,6.33
2018-12-13T00:45:25.911Z,6.13
2018-12-13T00:47:53.501Z,7.20
2018-12-13T00:50:21.057Z,6.73
2018-12-13T00:52:48.824Z,6.30
2018-12-13T00:55:16.345Z,6.57
2018-12-13T00:57:43.892Z,6.10
2018-12-13T01:00:11.516Z,6.47
2018-12-13T01:02:39.064Z,6.40
2018-12-13T01:05:06.723Z,6.60
2018-12-13T01:07:34.269Z,6.50
2018-12-13T01:10:02.137Z,6.00
2018-12-13T01:12:29.657Z,7.33
2018-12-13T01:14:57.215Z,6.63
2018-12-13T01:17:24.794Z,7.40
2018-12-13T01:19:52.357Z,6.20
2018-12-13T01:22:19.885Z,6.63
2018-12-13T01:24:47.413Z,7.20
2018-12-13T01:27:15.021Z,7.10
2018-12-13T01:29:42.569Z,7.00
2018-12-13T01:32:10.114Z,7.00
2018-12-13T01:34:37.670Z,6.97
2018-12-13T01:37:05.353Z,6.87
2018-12-13T01:39:32.873Z,6.90
2018-12-13T01:42:00.421Z,7.10
2018-12-13T01:44:27.977Z,7.03
2018-12-13T01:46:55.958Z,8.17
2018-12-13T01:49:23.499Z,7.83
2018-12-13T01:51:51.728Z,6.80
2018-12-13T01:54:19.269Z,7.27
2018-12-13T01:56:47.706Z,7.30
2018-12-13T01:59:15.223Z,8.13
2018-12-13T02:01:43.018Z,7.03
2018-12-13T02:04:10.634Z,6.93
2018-12-13T02:06:38.297Z,6.70
2018-12-13T02:09:06.765Z,7.90
2018-12-13T02:11:34.445Z,8.37
2018-12-13T02:14:02.022Z,6.63
2018-12-13T02:16:29.531Z,7.93
2018-12-13T02:18:57.035Z,7.20
2018-12-13T02:21:24.581Z,6.83
2018-12-13T02:23:52.219Z,7.27
2018-12-13T02:26:19.822Z,7.50
2018-12-13T02:28:47.332Z,7.30
2018-12-13T02:31:14.925Z,7.60
2018-12-13T02:33:42.823Z,7.33
2018-12-13T02:36:10.537Z,7.37
2018-12-13T02:38:38.769Z,7.70
2018-12-13T02:41:06.412Z,7.40
2018-12-13T02:43:34.008Z,7.57
2018-12-13T02:46:01.569Z,8.10
2018-12-13T02:48:29.373Z,7.20
2018-12-13T02:50:57.186Z,7.37
2018-12-13T02:53:24.961Z,7.27
2018-12-13T02:55:52.469Z,7.73
2018-12-13T02:58:20.011Z,7.43
2018-12-13T03:00:47.632Z,7.10
2018-12-13T03:03:15.342Z,8.07
2018-12-13T03:05:43.204Z,7.37
2018-12-13T03:08:10.769Z,8.00
2018-12-13T03:10:38.326Z,8.13
2018-12-13T03:13:05.945Z,8.53
2018-12-13T03:15:33.880Z,7.70
2018-12-13T03:18:01.460Z,7.53
2018-12-13T03:20:29.028Z,7.73
2018-12-13T03:22:56.622Z,7.93
2018-12-13T03:25:24.170Z,7.47
2018-12-13T03:27:52.239Z,8.40
2018-12-13T03:30:19.807Z,7.90
2018-12-13T03:32:47.401Z,8.53
2018-12-13T03:35:15.361Z,8.23
2018-12-13T03:37:42.998Z,7.90
2018-12-13T03:40:10.973Z,8.63
2018-12-13T03:42:38.529Z,8.43
2018-12-13T03:45:06.208Z,8.73
2018-12-13T03:47:33.763Z,8.57
2018-12-13T03:50:01.293Z,9.03
2018-12-13T03:52:28.897Z,8.53
2018-12-13T03:54:56.409Z,7.90
2018-12-13T03:57:24.107Z,7.70
2018-12-13T03:59:51.644Z,7.33
2018-12-13T04:02:19.330Z,8.47
2018-12-13T04:04:46.892Z,9.20
2018-12-13T04:07:14.764Z,8.37
2018-12-13T04:09:42.315Z,8.50
2018-12-13T04:12:10.092Z,8.27
2018-12-13T04:14:37.707Z,9.27
2018-12-13T04:17:05.757Z,8.17
2018-12-13T04:19:33.356Z,8.07
2018-12-13T04:22:01.208Z,8.30
2018-12-13T04:24:29.306Z,7.43
2018-12-13T04:26:56.853Z,9.00
2018-12-13T04:29:24.415Z,7.10
2018-12-13T04:31:51.978Z,7.20
2018-12-13T04:34:20.048Z,8.03
2018-12-13T04:36:47.736Z,8.00
2018-12-13T04:39:15.503Z,8.07
2018-12-13T04:41:43.700Z,7.93
2018-12-13T04:44:11.308Z,9.13
2018-12-13T04:46:38.868Z,7.83
2018-12-13T04:49:06.390Z,8.03
2018-12-13T04:51:33.977Z,9.40
2018-12-13T04:54:01.501Z,8.23
2018-12-13T04:56:29.040Z,8.23
2018-12-13T04:58:57.933Z,8.17
2018-12-13T05:01:25.595Z,8.70
2018-12-13T05:03:53.149Z,8.80
2018-12-13T05:06:20.897Z,8.53
2018-12-13T05:08:48.497Z,9.37
2018-12-13T05:11:16.057Z,7.97
2018-12-13T05:13:43.573Z,7.93
2018-12-13T05:16:11.247Z,8.60
2018-12-13T05:18:38.777Z,8.93
2018-12-13T05:21:06.358Z,8.50
2018-12-13T05:23:33.994Z,9.53
2018-12-13T05:26:01.605Z,10.93
2018-12-13T05:28:29.189Z,9.47
2018-12-13T05:30:56.742Z,9.10
2018-12-13T05:33:24.336Z,9.57
2018-12-13T05:35:51.869Z,8.73
2018-12-13T05:38:19.453Z,9.80
2018-12-13T05:40:46.968Z,9.03
2018-12-13T05:43:14.549Z,8.87
2018-12-13T05:45:42.114Z,9.43
2018-12-13T05:48:09.832Z,8.47
2018-12-13T05:50:37.362Z,9.33
2018-12-13T05:53:05.049Z,9.20
2018-12-13T05:55:32.880Z,10.10
2018-12-13T05:58:00.509Z,9.80
2018-12-13T06:00:28.089Z,8.93
2018-12-13T06:02:55.647Z,10.40
2018-12-13T06:05:23.212Z,9.60
2018-12-13T06:07:54.792Z,9.90
2018-12-13T06:10:20.582Z,9.63
2018-12-13T06:12:48.193Z,9.63
2018-12-13T06:15:15.713Z,9.93
2018-12-13T06:17:43.348Z,10.47
2018-12-13T06:20:10.908Z,10.70
2018-12-13T06:22:38.430Z,9.70
2018-12-13T06:25:06.024Z,10.03
2018-12-13T06:27:33.864Z,9.43
2018-12-13T06:30:07.266Z,10.17
2018-12-13T06:32:31.125Z,9.37
2018-12-13T06:34:58.679Z,10.10
2018-12-13T06:37:26.842Z,9.97
2018-12-13T06:39:54.699Z,10.47
2018-12-13T06:42:22.257Z,10.17
2018-12-13T06:44:49.949Z,9.57
2018-12-13T06:47:18.942Z,10.23
2018-12-13T06:49:46.550Z,10.83
2018-12-13T06:52:14.156Z,10.17
2018-12-13T06:54:41.689Z,10.20
2018-12-13T06:57:09.251Z,10.53
2018-12-13T06:59:36.898Z,11.27
2018-12-13T07:02:05.165Z,10.60
2018-12-13T07:04:32.858Z,10.43
2018-12-13T07:07:00.965Z,9.70
2018-12-13T07:09:28.559Z,9.90
2018-12-13T07:11:56.296Z,10.50
2018-12-13T07:14:23.848Z,11.33
2018-12-13T07:16:52.133Z,10.70
2018-12-13T07:19:19.823Z,10.03
2018-12-13T07:21:47.355Z,10.67
2018-12-13T07:24:16.956Z,10.53
2018-12-13T07:26:45.376Z,10.93
2018-12-13T07:29:13.061Z,11.37
2018-12-13T07:31:40.741Z,11.07
2018-12-13T07:34:08.566Z,10.80
2018-12-13T07:36:36.244Z,11.03
2018-12-13T07:39:07.839Z,10.50
2018-12-13T07:41:35.578Z,10.20
2018-12-13T07:44:03.314Z,11.80
2018-12-13T07:46:31.824Z,13.33
2018-12-13T07:48:59.513Z,11.80
2018-12-13T07:51:27.440Z,11.67
2018-12-13T07:53:55.573Z,13.07
2018-12-13T07:56:23.098Z,12.47
2018-12-13T07:58:51.062Z,12.37
2018-12-13T08:01:18.697Z,12.40
2018-12-13T08:03:46.311Z,12.63
2018-12-13T08:06:14.300Z,11.80
2018-12-13T08:08:41.903Z,12.33
2018-12-13T08:11:09.477Z,11.33
2018-12-13T08:13:37.032Z,12.53
2018-12-13T08:16:04.582Z,12.30
2018-12-13T08:18:32.137Z,11.83
2018-12-13T08:20:59.909Z,11.90
2018-12-13T08:23:27.472Z,11.57
2018-12-13T08:25:55.555Z,12.53
2018-12-13T08:28:23.076Z,11.97
2018-12-13T08:30:50.795Z,13.43
2018-12-13T08:33:18.421Z,12.50
2018-12-13T08:35:45.994Z,14.43
2018-12-13T08:38:13.875Z,14.20
2018-12-13T08:40:41.576Z,13.93
2018-12-13T08:43:09.108Z,13.23
2018-12-13T08:45:36.691Z,12.23
2018-12-13T08:48:04.247Z,13.00
2018-12-13T08:50:32.084Z,12.87
2018-12-13T08:52:59.825Z,12.43
2018-12-13T08:55:27.359Z,12.57
2018-12-13T08:57:56.211Z,13.07
2018-12-13T09:00:23.993Z,14.68
2018-12-13T09:02:51.641Z,14.03
2018-12-13T09:05:19.301Z,12.90
2018-12-13T09:07:46.827Z,15.00
2018-12-13T09:10:15.026Z,13.53
2018-12-13T09:12:43.216Z,13.97
2018-12-13T09:15:10.943Z,13.40
2018-12-13T09:17:39.345Z,14.43
2018-12-13T09:20:07.167Z,14.77
2018-12-13T09:22:34.694Z,12.50
2018-12-13T09:25:02.272Z,14.80
2018-12-13T09:27:29.857Z,14.40
2018-12-13T09:29:57.891Z,13.30
2018-12-13T09:32:26.429Z,13.47
2018-12-13T09:34:53.987Z,12.80
2018-12-13T09:37:23.084Z,13.20
2018-12-13T09:39:51.008Z,13.80
2018-12-13T09:42:18.564Z,14.30
2018-12-13T09:44:46.283Z,13.73
2018-12-13T09:47:13.845Z,14.10
2018-12-13T09:49:41.405Z,14.67
2018-12-13T09:52:09.198Z,14.37
2018-12-13T09:54:36.804Z,13.97
2018-12-13T09:57:05.219Z,14.83
2018-12-13T09:59:33.207Z,14.70
2018-12-13T10:02:01.874Z,15.27
2018-12-13T10:04:29.519Z,14.03
2018-12-13T10:06:57.057Z,14.30
2018-12-13T10:09:24.617Z,14.40
2018-12-13T10:11:52.145Z,13.77
2018-12-13T10:14:19.951Z,16.27
2018-12-13T10:16:47.845Z,14.70
2018-12-13T10:19:15.427Z,14.90
2018-12-13T10:21:43.398Z,14.90
2018-12-13T10:24:11.186Z,14.40
2018-12-13T10:26:39.007Z,15.27
2018-12-13T10:29:06.544Z,13.93
2018-12-13T10:31:34.178Z,14.70
2018-12-13T10:34:01.760Z,14.23
2018-12-13T10:36:29.478Z,14.37
2018-12-13T10:38:57.082Z,15.67
2018-12-13T10:41:24.622Z,15.07
2018-12-13T10:43:52.306Z,15.50
2018-12-13T10:46:19.849Z,15.77
2018-12-13T10:48:47.458Z,15.27
2018-12-13T10:51:15.601Z,15.23
2018-12-13T10:53:43.212Z,16.47
2018-12-13T10:56:10.760Z,15.30
2018-12-13T10:58:38.626Z,14.50
2018-12-13T11:01:12.223Z,15.97
2018-12-13T11:03:39.801Z,14.97
2018-12-13T11:06:07.447Z,15.33
2018-12-13T11:08:35.054Z,14.40
2018-12-13T11:11:02.633Z,15.77
2018-12-13T11:13:30.300Z,14.53
2018-12-13T11:15:57.826Z,15.67
2018-12-13T11:18:25.378Z,13.43
2018-12-13T11:20:54.033Z,14.93
2018-12-13T11:23:21.593Z,16.53
2018-12-13T11:25:49.228Z,15.53
2018-12-13T11:28:41.114Z,16.23
2018-12-13T11:31:09.467Z,18.20
2018-12-13T11:33:37.049Z,15.30
2018-12-13T11:36:04.587Z,14.20
2018-12-13T11:38:32.276Z,16.00
2018-12-13T11:40:59.810Z,15.20
2018-12-13T11:43:27.577Z,15.37
2018-12-13T11:45:55.154Z,16.60
2018-12-13T11:48:22.991Z,15.97
2018-12-13T11:50:50.795Z,17.07
2018-12-13T11:53:19.315Z,16.27
2018-12-13T11:55:46.994Z,15.97
2018-12-13T11:58:14.669Z,17.70
2018-12-13T12:00:42.230Z,16.53
2018-12-13T12:03:10.609Z,16.73
2018-12-13T12:05:38.173Z,17.13
2018-12-13T12:08:06.026Z,17.20
2018-12-13T12:10:33.571Z,16.17
2018-12-13T12:13:01.312Z,17.57
2018-12-13T12:15:29.069Z,17.83
2018-12-13T12:17:56.621Z,17.53
2018-12-13T12:20:24.882Z,16.93
2018-12-13T12:22:52.497Z,16.77
2018-12-13T12:25:20.520Z,15.77
2018-12-13T12:27:48.117Z,16.87
2018-12-13T12:30:15.821Z,16.80
2018-12-13T12:32:43.353Z,16.70
2018-12-13T12:35:10.926Z,16.57
2018-12-13T12:37:38.891Z,15.90
2018-12-13T12:40:07.991Z,17.73
2018-12-13T12:42:35.640Z,16.40
2018-12-13T12:45:04.178Z,17.47
2018-12-13T12:47:32.616Z,16.87
2018-12-13T12:50:00.181Z,18.13
2018-12-13T12:52:27.820Z,16.93
2018-12-13T12:54:55.400Z,15.83
2018-12-13T12:57:23.047Z,15.70
2018-12-13T12:59:50.944Z,16.00
2018-12-13T13:02:18.761Z,17.27
2018-12-13T13:04:46.570Z,16.47
2018-12-13T13:07:14.141Z,15.40
2018-12-13T13:09:43.016Z,16.07
2018-12-13T13:12:11.044Z,16.27
2018-12-13T13:14:38.723Z,19.17
2018-12-13T13:17:06.462Z,16.70
2018-12-13T13:19:34.090Z,16.33
2018-12-13T13:22:02.833Z,15.03
2018-12-13T13:24:30.757Z,15.87
2018-12-13T13:26:58.306Z,14.67
2018-12-13T13:29:25.952Z,15.27
2018-12-13T13:31:53.715Z,16.00
2018-12-13T13:34:21.563Z,15.90
2018-12-13T13:36:49.140Z,15.37
2018-12-13T13:39:16.734Z,16.37
2018-12-13T13:41:44.277Z,15.13
2018-12-13T13:44:12.357Z,15.53
2018-12-13T13:46:40.017Z,20.10
2018-12-13T13:49:07.609Z,15.30
2018-12-13T13:51:35.271Z,15.93
2018-12-13T13:54:02.857Z,14.93
2018-12-13T13:56:30.869Z,15.33
2018-12-13T13:58:58.935Z,14.70
2018-12-13T14:01:26.511Z,14.33
2018-12-13T14:03:59.269Z,15.33
2018-12-13T14:06:26.861Z,13.27
2018-12-13T14:08:54.371Z,15.97
2018-12-13T14:11:21.972Z,15.00
2018-12-13T14:13:50.328Z,14.83
2018-12-13T14:16:17.965Z,15.20
2018-12-13T14:18:45.916Z,13.47
2018-12-13T14:21:14.125Z,13.70
2018-12-13T14:23:41.668Z,14.10
2018-12-13T14:26:09.254Z,13.13
2018-12-13T14:28:36.770Z,14.20
2018-12-13T14:31:04.343Z,13.27
2018-12-13T14:33:33.161Z,14.50
2018-12-13T14:36:00.782Z,14.77
2018-12-13T14:38:28.556Z,13.13
2018-12-13T14:40:56.760Z,13.73
2018-12-13T14:43:24.533Z,13.17
2018-12-13T14:45:52.087Z,13.37
2018-12-13T14:48:20.335Z,12.67
2018-12-13T14:50:47.885Z,13.03
2018-12-13T14:53:16.820Z,12.47
2018-12-13T14:55:44.586Z,12.90
2018-12-13T14:58:12.917Z,12.20
2018-12-13T15:00:41.126Z,12.87
2018-12-13T15:03:09.195Z,12.33
2018-12-13T15:05:37.174Z,11.43
2018-12-13T15:08:05.052Z,12.23
2018-12-13T15:10:32.570Z,10.93
2018-12-13T15:13:00.141Z,11.87
2018-12-13T15:15:27.814Z,11.33
2018-12-13T15:17:56.302Z,11.03
2018-12-13T15:20:24.007Z,11.67
2018-12-13T15:22:51.672Z,11.37
2018-12-13T15:25:19.281Z,11.13
2018-12-13T15:27:47.507Z,11.47
2018-12-13T15:30:15.131Z,11.07
2018-12-13T15:32:42.693Z,11.10
2018-12-13T15:35:10.422Z,11.87
2018-12-13T15:37:38.291Z,12.23
2018-12-13T15:40:07.268Z,11.60
2018-12-13T15:42:36.756Z,12.10
2018-12-13T15:45:06.311Z,11.57
2018-12-13T15:47:33.910Z,11.87
2018-12-13T15:50:01.936Z,11.23
2018-12-13T15:52:29.611Z,11.87
2018-12-13T15:54:57.189Z,14.23
2018-12-13T15:57:24.839Z,12.67
2018-12-13T15:59:52.414Z,11.80
2018-12-13T16:02:20.403Z,11.63
2018-12-13T16:04:48.126Z,12.10
2018-12-13T16:07:16.629Z,14.13
2018-12-13T16:09:44.181Z,13.40
2018-12-13T16:12:11.855Z,12.50
2018-12-13T16:14:40.303Z,13.63
2018-12-13T16:17:07.861Z,13.17
2018-12-13T16:19:35.663Z,12.47
2018-12-13T16:22:04.805Z,12.93
2018-12-13T16:24:32.353Z,13.23
2018-12-13T16:27:00.027Z,12.30
2018-12-13T16:29:28.893Z,12.83
2018-12-13T16:31:56.610Z,13.17
2018-12-13T16:34:25.009Z,13.77
2018-12-13T16:36:53.178Z,13.97
2018-12-13T16:39:22.182Z,12.63
2018-12-13T16:41:50.422Z,13.67
2018-12-13T16:44:17.957Z,13.73
2018-12-13T16:46:46.457Z,13.80
2018-12-13T16:49:14.015Z,13.10
2018-12-13T16:51:41.561Z,14.17
2018-12-13T16:54:09.259Z,13.80
2018-12-13T16:56:37.515Z,14.10
2018-12-13T16:59:05.249Z,14.30
2018-12-13T17:01:33.354Z,13.93
2018-12-13T17:04:00.931Z,14.80
2018-12-13T17:06:29.007Z,14.23
2018-12-13T17:08:56.869Z,14.87
2018-12-13T17:11:24.836Z,14.07
2018-12-13T17:13:52.449Z,14.20
2018-12-13T17:16:20.061Z,14.90
2018-12-13T17:18:47.623Z,14.20
2018-12-13T17:21:15.153Z,13.80
2018-12-13T17:23:42.723Z,14.57
2018-12-13T17:26:10.292Z,14.47
2018-12-13T17:28:37.864Z,14.07
2018-12-13T17:31:05.387Z,15.20
2018-12-13T17:33:33.091Z,13.53
2018-12-13T17:36:00.657Z,15.27
2018-12-13T17:38:28.221Z,14.30
2018-12-13T17:40:55.761Z,13.83
2018-12-13T17:43:23.562Z,14.83
2018-12-13T17:45:52.126Z,14.73
2018-12-13T17:48:19.685Z,13.97
2018-12-13T17:50:47.252Z,15.13
2018-12-13T17:53:14.858Z,13.53
2018-12-13T17:55:42.637Z,14.17
2018-12-13T17:58:10.169Z,13.07
2018-12-13T18:00:37.793Z,12.70
2018-12-13T18:03:05.529Z,15.03
2018-12-13T18:05:33.206Z,13.40
2018-12-13T18:08:00.746Z,13.90
2018-12-13T18:10:29.496Z,14.33
2018-12-13T18:12:57.547Z,14.53
2018-12-13T18:15:25.196Z,14.53
2018-12-13T18:17:52.947Z,14.07
2018-12-13T18:20:20.719Z,13.90
2018-12-13T18:22:48.425Z,13.80
2018-12-13T18:25:16.057Z,14.30
2018-12-13T18:27:44.994Z,12.43
2018-12-13T18:30:12.836Z,13.73
2018-12-13T18:32:40.394Z,14.87
2018-12-13T18:35:07.933Z,13.50
2018-12-13T18:37:35.606Z,13.10
2018-12-13T18:40:03.693Z,12.60
2018-12-13T18:42:31.285Z,13.23
2018-12-13T18:44:58.833Z,13.83
2018-12-13T18:47:26.441Z,14.20
2018-12-13T18:49:54.466Z,14.07
2018-12-13T18:52:22.021Z,14.33
2018-12-13T18:54:49.826Z,13.13
2018-12-13T18:57:17.688Z,13.00
2018-12-13T18:59:45.243Z,13.87
2018-12-13T19:02:13.739Z,12.97
2018-12-13T19:04:41.511Z,13.67
2018-12-13T19:07:09.113Z,14.03
2018-12-13T19:09:36.719Z,13.37
2018-12-13T19:12:04.297Z,14.03
2018-12-13T19:14:31.810Z,14.03
2018-12-13T19:16:59.403Z,13.90
2018-12-13T19:19:26.997Z,14.43
2018-12-13T19:21:54.538Z,13.70
2018-12-13T19:24:22.143Z,14.10
2018-12-13T19:26:49.659Z,14.07
2018-12-13T19:29:17.829Z,14.47
2018-12-13T19:31:45.395Z,14.87
2018-12-13T19:34:12.912Z,14.27
2018-12-13T19:36:40.449Z,14.27
2018-12-13T19:39:08.030Z,13.90
2018-12-13T19:41:35.634Z,14.70
2018-12-13T19:44:03.230Z,14.60
2018-12-13T19:46:30.918Z,15.00
2018-12-13T19:48:58.598Z,14.37
2018-12-13T19:51:26.252Z,15.03
2018-12-13T19:53:53.897Z,14.87
2018-12-13T19:56:21.460Z,14.90
2018-12-13T19:58:49.711Z,15.60
2018-12-13T20:01:17.314Z,14.70
2018-12-13T20:03:44.937Z,15.13
2018-12-13T20:06:12.514Z,15.57
2018-12-13T20:08:40.070Z,16.20
2018-12-13T20:11:07.644Z,15.90
2018-12-13T20:13:36.921Z,15.47
2018-12-13T20:16:04.520Z,15.60
2018-12-13T20:18:32.080Z,15.10
2018-12-13T20:20:59.885Z,16.20
2018-12-13T20:23:27.493Z,15.00
2018-12-13T20:25:55.185Z,14.13
2018-12-13T20:28:23.154Z,15.70
2018-12-13T20:30:50.781Z,15.00
2018-12-13T20:33:18.640Z,15.20
2018-12-13T20:35:46.296Z,14.97
2018-12-13T20:38:13.910Z,16.83
2018-12-13T20:40:41.472Z,15.90
2018-12-13T20:43:09.011Z,14.70
2018-12-13T20:45:37.386Z,15.33
2018-12-13T20:48:04.948Z,15.83
2018-12-13T20:50:32.719Z,14.83
2018-12-13T20:53:00.374Z,15.67
2018-12-13T20:55:27.966Z,15.43
2018-12-13T20:57:55.491Z,14.07
2018-12-13T21:00:23.132Z,15.63
2018-12-13T21:02:50.685Z,14.57
2018-12-13T21:05:18.227Z,16.63
2018-12-13T21:07:46.909Z,14.33
2018-12-13T21:10:14.765Z,15.70
2018-12-13T21:12:42.298Z,15.83
2018-12-13T21:15:10.581Z,15.60
2018-12-13T21:17:38.169Z,16.77
2018-12-13T21:20:06.705Z,15.97
2018-12-13T21:22:34.268Z,16.70
2018-12-13T21:25:01.824Z,17.03
2018-12-13T21:27:29.593Z,17.10
2018-12-13T21:29:57.967Z,16.03
2018-12-13T21:32:25.692Z,16.90
2018-12-13T21:34:53.306Z,16.70
2018-12-13T21:37:20.957Z,17.60
2018-12-13T21:39:48.565Z,16.40
2018-12-13T21:42:16.139Z,17.40
2018-12-13T21:44:44.559Z,17.30
2018-12-13T21:47:12.326Z,15.87
2018-12-13T21:49:39.938Z,15.63
2018-12-13T21:52:07.649Z,16.33
2018-12-13T21:54:35.205Z,16.83
2018-12-13T21:57:04.005Z,17.27
2018-12-13T21:59:31.773Z,16.37
2018-12-13T22:01:59.609Z,16.90
2018-12-13T22:04:27.173Z,17.17
2018-12-13T22:06:54.873Z,16.70
2018-12-13T22:09:22.494Z,17.70
2018-12-13T22:11:50.156Z,16.27
2018-12-13T22:14:17.714Z,16.30
2018-12-13T22:16:45.385Z,16.40
2018-12-13T22:19:12.970Z,16.40
2018-12-13T22:21:40.574Z,16.80
2018-12-13T22:24:08.105Z,17.40
2018-12-13T22:26:35.625Z,15.40
2018-12-13T22:29:03.229Z,14.70
2018-12-13T22:31:30.855Z,17.67
2018-12-13T22:33:58.495Z,15.63
2018-12-13T22:36:26.079Z,15.77
2018-12-13T22:38:53.658Z,15.53
2018-12-13T22:41:26.514Z,15.53
2018-12-13T22:43:54.265Z,15.30
2018-12-13T22:46:21.983Z,16.63
2018-12-13T22:48:49.567Z,15.23
2018-12-13T22:51:17.241Z,16.53
2018-12-13T22:53:44.820Z,16.60
2018-12-13T22:56:12.362Z,15.70
2018-12-13T22:58:39.879Z,15.47
2018-12-13T23:01:07.437Z,15.20
2018-12-13T23:03:34.997Z,16.93
2018-12-13T23:06:02.563Z,17.03
2018-12-13T23:08:30.096Z,16.53
2018-12-13T23:10:58.051Z,16.17
2018-12-13T23:13:25.577Z,15.77
2018-12-13T23:15:53.341Z,15.10
2018-12-13T23:18:20.919Z,14.43
2018-12-13T23:20:48.449Z,14.67
2018-12-13T23:23:16.037Z,15.23
2018-12-13T23:25:43.805Z,16.00
2018-12-13T23:28:11.521Z,14.67
2018-12-13T23:30:39.047Z,16.40
2018-12-13T23:33:06.818Z,15.60
2018-12-13T23:35:34.371Z,15.23
2018-12-13T23:38:02.031Z,16.03
2018-12-13T23:40:29.618Z,16.87
2018-12-13T23:42:57.244Z,15.50
2018-12-13T23:45:24.814Z,16.20
2018-12-13T23:47:52.386Z,16.13
2018-12-13T23:50:20.249Z,15.13
2018-12-13T23:52:47.815Z,14.93
2018-12-13T23:55:15.846Z,14.93
2018-12-13T23:57:43.503Z,14.97
